sensor_id;sensor_type;location;lat;lon;timestamp;P1;durP1;ratioP1;P2;durP2;ratioP2
73693;SDS011;61997;53.974;11.670;2023-06-05T00:01:08;6.20;;;3.10;;
73693;SDS011;61997;53.974;11.670;2023-06-05T00:03:49;6.63;;;3.55;;
73693;SDS011;61997;53.974;11.670;2023-06-05T00:06:24;6.55;;;3.47;;
73693;SDS011;61997;53.974;11.670;2023-06-05T00:09:04;5.55;;;3.60;;
73693;SDS011;61997;53.974;11.670;2023-06-05T00:11:43;5.43;;;3.28;;
73693;SDS011;61997;53.974;11.670;2023-06-05T00:14:15;6.70;;;3.45;;
73693;SDS011;61997;53.974;11.670;2023-06-05T00:16:53;4.70;;;3.30;;
73693;SDS011;61997;53.974;11.670;2023-06-05T00:19:28;5.53;;;3.70;;
73693;SDS011;61997;53.974;11.670;2023-06-05T00:22:01;6.43;;;3.90;;
73693;SDS011;61997;53.974;11.670;2023-06-05T00:24:40;4.68;;;3.08;;
73693;SDS011;61997;53.974;11.670;2023-06-05T00:27:11;5.25;;;3.20;;
73693;SDS011;61997;53.974;11.670;2023-06-05T00:29:51;5.00;;;3.42;;
73693;SDS011;61997;53.974;11.670;2023-06-05T00:32:29;4.35;;;2.90;;
73693;SDS011;61997;53.974;11.670;2023-06-05T00:35:03;4.43;;;3.03;;
73693;SDS011;61997;53.974;11.670;2023-06-05T00:37:43;5.63;;;3.40;;
73693;SDS011;61997;53.974;11.670;2023-06-05T00:40:24;4.93;;;3.13;;
73693;SDS011;61997;53.974;11.670;2023-06-05T00:43:09;6.07;;;4.00;;
73693;SDS011;61997;53.974;11.670;2023-06-05T00:45:47;6.13;;;3.60;;
73693;SDS011;61997;53.974;11.670;2023-06-05T00:48:29;5.45;;;3.45;;
73693;SDS011;61997;53.974;11.670;2023-06-05T00:51:03;6.78;;;3.30;;
73693;SDS011;61997;53.974;11.670;2023-06-05T00:53:41;5.82;;;3.08;;
73693;SDS011;61997;53.974;11.670;2023-06-05T00:56:13;5.63;;;3.47;;
73693;SDS011;61997;53.974;11.670;2023-06-05T00:58:52;6.55;;;3.88;;
73693;SDS011;61997;53.974;11.670;2023-06-05T01:01:21;5.97;;;3.40;;
73693;SDS011;61997;53.974;11.670;2023-06-05T01:04:00;4.63;;;3.17;;
73693;SDS011;61997;53.974;11.670;2023-06-05T01:06:38;4.55;;;2.97;;
73693;SDS011;61997;53.974;11.670;2023-06-05T01:09:08;4.93;;;3.10;;
73693;SDS011;61997;53.974;11.670;2023-06-05T01:14:38;4.50;;;3.22;;
73693;SDS011;61997;53.974;11.670;2023-06-05T01:17:15;5.65;;;3.60;;
73693;SDS011;61997;53.974;11.670;2023-06-05T01:19:58;3.88;;;2.60;;
73693;SDS011;61997;53.974;11.670;2023-06-05T01:22:44;5.25;;;3.08;;
73693;SDS011;61997;53.974;11.670;2023-06-05T01:25:25;5.47;;;3.05;;
73693;SDS011;61997;53.974;11.670;2023-06-05T01:28:19;4.95;;;3.13;;
73693;SDS011;61997;53.974;11.670;2023-06-05T01:33:51;5.20;;;3.15;;
73693;SDS011;61997;53.974;11.670;2023-06-05T01:36:31;4.45;;;3.13;;
73693;SDS011;61997;53.974;11.670;2023-06-05T01:39:17;4.72;;;3.03;;
73693;SDS011;61997;53.974;11.670;2023-06-05T01:41:52;3.33;;;2.42;;
73693;SDS011;61997;53.974;11.670;2023-06-05T01:44:35;6.15;;;3.20;;
73693;SDS011;61997;53.974;11.670;2023-06-05T01:47:13;4.32;;;2.72;;
73693;SDS011;61997;53.974;11.670;2023-06-05T01:49:53;5.15;;;3.13;;
73693;SDS011;61997;53.974;11.670;2023-06-05T01:52:26;4.70;;;2.60;;
73693;SDS011;61997;53.974;11.670;2023-06-05T01:55:04;4.47;;;2.88;;
73693;SDS011;61997;53.974;11.670;2023-06-05T01:57:46;4.93;;;2.85;;
73693;SDS011;61997;53.974;11.670;2023-06-05T02:00:17;3.90;;;2.55;;
73693;SDS011;61997;53.974;11.670;2023-06-05T02:02:56;6.00;;;2.90;;
73693;SDS011;61997;53.974;11.670;2023-06-05T02:05:25;7.10;;;3.22;;
73693;SDS011;61997;53.974;11.670;2023-06-05T02:08:06;5.03;;;3.03;;
73693;SDS011;61997;53.974;11.670;2023-06-05T02:10:50;5.07;;;2.90;;
73693;SDS011;61997;53.974;11.670;2023-06-05T02:13:30;4.10;;;2.53;;
73693;SDS011;61997;53.974;11.670;2023-06-05T02:16:10;5.68;;;2.88;;
73693;SDS011;61997;53.974;11.670;2023-06-05T02:18:53;4.53;;;3.10;;
73693;SDS011;61997;53.974;11.670;2023-06-05T02:21:30;4.60;;;2.70;;
73693;SDS011;61997;53.974;11.670;2023-06-05T02:24:16;4.47;;;2.45;;
73693;SDS011;61997;53.974;11.670;2023-06-05T02:26:52;4.45;;;2.30;;
73693;SDS011;61997;53.974;11.670;2023-06-05T02:29:40;6.28;;;2.80;;
73693;SDS011;61997;53.974;11.670;2023-06-05T02:32:16;4.50;;;2.70;;
73693;SDS011;61997;53.974;11.670;2023-06-05T02:35:02;4.47;;;2.95;;
73693;SDS011;61997;53.974;11.670;2023-06-05T02:37:36;3.67;;;2.35;;
73693;SDS011;61997;53.974;11.670;2023-06-05T02:40:17;4.65;;;2.92;;
73693;SDS011;61997;53.974;11.670;2023-06-05T02:42:51;4.75;;;2.90;;
73693;SDS011;61997;53.974;11.670;2023-06-05T02:45:34;5.38;;;2.60;;
73693;SDS011;61997;53.974;11.670;2023-06-05T02:48:14;5.13;;;2.85;;
73693;SDS011;61997;53.974;11.670;2023-06-05T02:50:45;3.88;;;3.05;;
73693;SDS011;61997;53.974;11.670;2023-06-05T02:53:27;4.20;;;2.47;;
73693;SDS011;61997;53.974;11.670;2023-06-05T02:56:08;6.20;;;2.85;;
73693;SDS011;61997;53.974;11.670;2023-06-05T02:58:43;5.13;;;2.60;;
73693;SDS011;61997;53.974;11.670;2023-06-05T03:01:15;4.05;;;2.30;;
73693;SDS011;61997;53.974;11.670;2023-06-05T03:03:54;4.78;;;2.50;;
73693;SDS011;61997;53.974;11.670;2023-06-05T03:06:25;4.35;;;2.45;;
73693;SDS011;61997;53.974;11.670;2023-06-05T03:09:02;4.32;;;2.38;;
73693;SDS011;61997;53.974;11.670;2023-06-05T03:11:44;4.05;;;2.60;;
73693;SDS011;61997;53.974;11.670;2023-06-05T03:14:16;4.07;;;2.67;;
73693;SDS011;61997;53.974;11.670;2023-06-05T03:16:56;4.72;;;2.47;;
73693;SDS011;61997;53.974;11.670;2023-06-05T03:19:31;4.18;;;2.80;;
73693;SDS011;61997;53.974;11.670;2023-06-05T03:22:08;3.38;;;2.40;;
73693;SDS011;61997;53.974;11.670;2023-06-05T03:24:47;3.65;;;2.35;;
73693;SDS011;61997;53.974;11.670;2023-06-05T03:27:18;3.15;;;2.22;;
73693;SDS011;61997;53.974;11.670;2023-06-05T03:29:49;3.53;;;2.38;;
73693;SDS011;61997;53.974;11.670;2023-06-05T03:32:29;3.38;;;2.15;;
73693;SDS011;61997;53.974;11.670;2023-06-05T03:35:08;3.45;;;2.50;;
73693;SDS011;61997;53.974;11.670;2023-06-05T03:37:43;3.75;;;2.05;;
73693;SDS011;61997;53.974;11.670;2023-06-05T03:40:14;3.47;;;2.03;;
73693;SDS011;61997;53.974;11.670;2023-06-05T03:42:52;4.38;;;2.30;;
73693;SDS011;61997;53.974;11.670;2023-06-05T03:48:10;3.53;;;2.40;;
73693;SDS011;61997;53.974;11.670;2023-06-05T03:50:40;4.40;;;2.13;;
73693;SDS011;61997;53.974;11.670;2023-06-05T03:53:11;3.97;;;2.92;;
73693;SDS011;61997;53.974;11.670;2023-06-05T03:55:47;4.45;;;2.55;;
73693;SDS011;61997;53.974;11.670;2023-06-05T03:58:30;3.83;;;2.60;;
73693;SDS011;61997;53.974;11.670;2023-06-05T04:01:14;3.75;;;2.95;;
73693;SDS011;61997;53.974;11.670;2023-06-05T04:03:47;4.38;;;2.33;;
73693;SDS011;61997;53.974;11.670;2023-06-05T04:06:19;3.70;;;2.63;;
73693;SDS011;61997;53.974;11.670;2023-06-05T04:08:50;2.78;;;2.22;;
73693;SDS011;61997;53.974;11.670;2023-06-05T04:11:24;3.33;;;2.20;;
73693;SDS011;61997;53.974;11.670;2023-06-05T04:13:53;3.75;;;2.35;;
73693;SDS011;61997;53.974;11.670;2023-06-05T04:16:19;4.55;;;2.15;;
73693;SDS011;61997;53.974;11.670;2023-06-05T04:18:45;4.03;;;2.60;;
73693;SDS011;61997;53.974;11.670;2023-06-05T04:21:12;3.35;;;2.30;;
73693;SDS011;61997;53.974;11.670;2023-06-05T04:23:38;3.50;;;2.58;;
73693;SDS011;61997;53.974;11.670;2023-06-05T04:26:03;3.25;;;2.38;;
73693;SDS011;61997;53.974;11.670;2023-06-05T04:28:35;4.28;;;2.03;;
73693;SDS011;61997;53.974;11.670;2023-06-05T04:31:13;4.00;;;2.30;;
73693;SDS011;61997;53.974;11.670;2023-06-05T04:33:41;3.00;;;2.33;;
73693;SDS011;61997;53.974;11.670;2023-06-05T04:36:13;3.45;;;2.13;;
73693;SDS011;61997;53.974;11.670;2023-06-05T04:38:39;4.03;;;2.50;;
73693;SDS011;61997;53.974;11.670;2023-06-05T04:41:06;3.70;;;2.35;;
73693;SDS011;61997;53.974;11.670;2023-06-05T04:43:40;2.63;;;2.05;;
73693;SDS011;61997;53.974;11.670;2023-06-05T04:46:07;4.75;;;2.30;;
73693;SDS011;61997;53.974;11.670;2023-06-05T04:48:38;3.60;;;2.50;;
73693;SDS011;61997;53.974;11.670;2023-06-05T04:51:07;4.07;;;2.33;;
73693;SDS011;61997;53.974;11.670;2023-06-05T04:53:34;3.13;;;2.13;;
73693;SDS011;61997;53.974;11.670;2023-06-05T04:56:00;3.38;;;2.42;;
73693;SDS011;61997;53.974;11.670;2023-06-05T04:58:32;3.63;;;2.10;;
73693;SDS011;61997;53.974;11.670;2023-06-05T05:01:02;3.47;;;2.30;;
73693;SDS011;61997;53.974;11.670;2023-06-05T05:03:36;3.88;;;2.08;;
73693;SDS011;61997;53.974;11.670;2023-06-05T05:06:07;3.78;;;2.03;;
73693;SDS011;61997;53.974;11.670;2023-06-05T05:11:22;3.50;;;2.17;;
73693;SDS011;61997;53.974;11.670;2023-06-05T05:13:49;3.30;;;2.20;;
73693;SDS011;61997;53.974;11.670;2023-06-05T05:16:18;3.20;;;1.83;;
73693;SDS011;61997;53.974;11.670;2023-06-05T05:18:48;3.92;;;2.00;;
73693;SDS011;61997;53.974;11.670;2023-06-05T05:21:15;3.80;;;2.10;;
73693;SDS011;61997;53.974;11.670;2023-06-05T05:23:46;2.75;;;1.90;;
73693;SDS011;61997;53.974;11.670;2023-06-05T05:26:14;2.83;;;1.95;;
73693;SDS011;61997;53.974;11.670;2023-06-05T05:28:46;3.25;;;2.38;;
73693;SDS011;61997;53.974;11.670;2023-06-05T05:31:18;3.33;;;1.90;;
73693;SDS011;61997;53.974;11.670;2023-06-05T05:33:46;3.15;;;2.30;;
73693;SDS011;61997;53.974;11.670;2023-06-05T05:36:16;3.50;;;2.10;;
73693;SDS011;61997;53.974;11.670;2023-06-05T05:38:46;2.83;;;1.98;;
73693;SDS011;61997;53.974;11.670;2023-06-05T05:41:14;2.70;;;2.10;;
73693;SDS011;61997;53.974;11.670;2023-06-05T05:43:40;3.08;;;1.83;;
73693;SDS011;61997;53.974;11.670;2023-06-05T05:46:07;3.15;;;1.95;;
73693;SDS011;61997;53.974;11.670;2023-06-05T05:48:39;3.70;;;1.98;;
73693;SDS011;61997;53.974;11.670;2023-06-05T05:51:06;2.67;;;2.03;;
73693;SDS011;61997;53.974;11.670;2023-06-05T05:53:39;3.30;;;2.10;;
73693;SDS011;61997;53.974;11.670;2023-06-05T05:56:08;5.32;;;2.40;;
73693;SDS011;61997;53.974;11.670;2023-06-05T05:58:39;2.83;;;2.08;;
73693;SDS011;61997;53.974;11.670;2023-06-05T06:01:08;3.17;;;1.83;;
73693;SDS011;61997;53.974;11.670;2023-06-05T06:03:38;3.50;;;1.92;;
73693;SDS011;61997;53.974;11.670;2023-06-05T06:06:09;2.70;;;2.00;;
73693;SDS011;61997;53.974;11.670;2023-06-05T06:08:38;2.60;;;1.70;;
73693;SDS011;61997;53.974;11.670;2023-06-05T06:11:10;3.33;;;1.95;;
73693;SDS011;61997;53.974;11.670;2023-06-05T06:13:38;3.90;;;2.00;;
73693;SDS011;61997;53.974;11.670;2023-06-05T06:16:06;2.60;;;1.77;;
73693;SDS011;61997;53.974;11.670;2023-06-05T06:18:34;2.83;;;2.05;;
73693;SDS011;61997;53.974;11.670;2023-06-05T06:21:00;2.95;;;1.92;;
73693;SDS011;61997;53.974;11.670;2023-06-05T06:23:29;3.20;;;1.75;;
73693;SDS011;61997;53.974;11.670;2023-06-05T06:25:56;2.80;;;1.95;;
73693;SDS011;61997;53.974;11.670;2023-06-05T06:28:25;3.20;;;1.88;;
73693;SDS011;61997;53.974;11.670;2023-06-05T06:30:56;2.95;;;1.92;;
73693;SDS011;61997;53.974;11.670;2023-06-05T06:33:22;2.28;;;1.80;;
73693;SDS011;61997;53.974;11.670;2023-06-05T06:35:47;3.53;;;1.90;;
73693;SDS011;61997;53.974;11.670;2023-06-05T06:38:13;2.88;;;1.92;;
73693;SDS011;61997;53.974;11.670;2023-06-05T06:40:39;2.97;;;2.03;;
73693;SDS011;61997;53.974;11.670;2023-06-05T06:43:04;3.75;;;2.00;;
73693;SDS011;61997;53.974;11.670;2023-06-05T06:45:32;2.60;;;1.75;;
73693;SDS011;61997;53.974;11.670;2023-06-05T06:47:58;3.72;;;2.17;;
73693;SDS011;61997;53.974;11.670;2023-06-05T06:50:23;3.00;;;2.03;;
73693;SDS011;61997;53.974;11.670;2023-06-05T06:52:49;3.03;;;1.60;;
73693;SDS011;61997;53.974;11.670;2023-06-05T06:55:15;2.70;;;1.77;;
73693;SDS011;61997;53.974;11.670;2023-06-05T06:57:42;3.25;;;2.00;;
73693;SDS011;61997;53.974;11.670;2023-06-05T07:00:09;2.65;;;1.75;;
73693;SDS011;61997;53.974;11.670;2023-06-05T07:02:36;3.03;;;1.92;;
73693;SDS011;61997;53.974;11.670;2023-06-05T07:05:06;3.17;;;1.90;;
73693;SDS011;61997;53.974;11.670;2023-06-05T07:07:33;3.10;;;1.90;;
73693;SDS011;61997;53.974;11.670;2023-06-05T07:09:59;2.47;;;1.80;;
73693;SDS011;61997;53.974;11.670;2023-06-05T07:12:27;2.63;;;1.90;;
73693;SDS011;61997;53.974;11.670;2023-06-05T07:14:54;2.60;;;1.80;;
73693;SDS011;61997;53.974;11.670;2023-06-05T07:17:22;3.67;;;2.05;;
73693;SDS011;61997;53.974;11.670;2023-06-05T07:19:48;2.22;;;1.67;;
73693;SDS011;61997;53.974;11.670;2023-06-05T07:22:17;2.75;;;1.85;;
73693;SDS011;61997;53.974;11.670;2023-06-05T07:24:42;2.78;;;1.80;;
73693;SDS011;61997;53.974;11.670;2023-06-05T07:27:09;3.22;;;1.80;;
73693;SDS011;61997;53.974;11.670;2023-06-05T07:29:35;3.30;;;1.75;;
73693;SDS011;61997;53.974;11.670;2023-06-05T07:32:01;3.22;;;1.98;;
73693;SDS011;61997;53.974;11.670;2023-06-05T07:34:35;2.65;;;1.77;;
73693;SDS011;61997;53.974;11.670;2023-06-05T07:37:08;4.63;;;1.95;;
73693;SDS011;61997;53.974;11.670;2023-06-05T07:39:37;2.47;;;1.77;;
73693;SDS011;61997;53.974;11.670;2023-06-05T07:42:03;3.58;;;2.00;;
73693;SDS011;61997;53.974;11.670;2023-06-05T07:44:33;2.65;;;1.70;;
73693;SDS011;61997;53.974;11.670;2023-06-05T07:46:59;2.85;;;1.67;;
73693;SDS011;61997;53.974;11.670;2023-06-05T07:49:25;2.67;;;1.70;;
73693;SDS011;61997;53.974;11.670;2023-06-05T07:51:55;2.50;;;1.70;;
73693;SDS011;61997;53.974;11.670;2023-06-05T07:54:21;2.50;;;1.80;;
73693;SDS011;61997;53.974;11.670;2023-06-05T07:56:48;2.88;;;1.90;;
73693;SDS011;61997;53.974;11.670;2023-06-05T08:01:44;2.40;;;1.60;;
73693;SDS011;61997;53.974;11.670;2023-06-05T08:04:12;2.60;;;1.60;;
73693;SDS011;61997;53.974;11.670;2023-06-05T08:06:42;3.05;;;1.70;;
73693;SDS011;61997;53.974;11.670;2023-06-05T08:09:08;3.13;;;1.90;;
73693;SDS011;61997;53.974;11.670;2023-06-05T08:11:37;2.42;;;1.63;;
73693;SDS011;61997;53.974;11.670;2023-06-05T08:14:05;2.47;;;1.83;;
73693;SDS011;61997;53.974;11.670;2023-06-05T08:16:33;3.60;;;1.85;;
73693;SDS011;61997;53.974;11.670;2023-06-05T08:18:59;2.60;;;1.77;;
73693;SDS011;61997;53.974;11.670;2023-06-05T08:21:27;2.67;;;1.60;;
73693;SDS011;61997;53.974;11.670;2023-06-05T08:23:53;2.13;;;1.58;;
73693;SDS011;61997;53.974;11.670;2023-06-05T08:26:19;2.33;;;1.55;;
73693;SDS011;61997;53.974;11.670;2023-06-05T08:28:49;1.73;;;1.45;;
73693;SDS011;61997;53.974;11.670;2023-06-05T08:31:15;2.22;;;1.55;;
73693;SDS011;61997;53.974;11.670;2023-06-05T08:33:42;2.63;;;1.75;;
73693;SDS011;61997;53.974;11.670;2023-06-05T08:36:08;3.35;;;1.90;;
73693;SDS011;61997;53.974;11.670;2023-06-05T08:38:35;3.15;;;1.75;;
73693;SDS011;61997;53.974;11.670;2023-06-05T08:41:04;2.10;;;1.50;;
73693;SDS011;61997;53.974;11.670;2023-06-05T08:43:36;2.50;;;1.67;;
73693;SDS011;61997;53.974;11.670;2023-06-05T08:46:08;2.80;;;1.73;;
73693;SDS011;61997;53.974;11.670;2023-06-05T08:48:40;2.70;;;1.70;;
73693;SDS011;61997;53.974;11.670;2023-06-05T08:51:09;2.85;;;1.60;;
73693;SDS011;61997;53.974;11.670;2023-06-05T08:53:37;3.25;;;1.60;;
73693;SDS011;61997;53.974;11.670;2023-06-05T08:56:05;2.70;;;1.45;;
73693;SDS011;61997;53.974;11.670;2023-06-05T08:58:36;2.30;;;1.50;;
73693;SDS011;61997;53.974;11.670;2023-06-05T09:01:05;3.83;;;1.50;;
73693;SDS011;61997;53.974;11.670;2023-06-05T09:03:34;2.80;;;1.67;;
73693;SDS011;61997;53.974;11.670;2023-06-05T09:06:00;1.80;;;1.40;;
73693;SDS011;61997;53.974;11.670;2023-06-05T09:08:30;2.42;;;1.70;;
73693;SDS011;61997;53.974;11.670;2023-06-05T09:13:56;2.67;;;1.52;;
73693;SDS011;61997;53.974;11.670;2023-06-05T09:16:41;2.75;;;1.60;;
73693;SDS011;61997;53.974;11.670;2023-06-05T09:19:09;2.65;;;1.63;;
73693;SDS011;61997;53.974;11.670;2023-06-05T09:21:38;3.42;;;1.50;;
73693;SDS011;61997;53.974;11.670;2023-06-05T09:29:31;2.47;;;1.50;;
73693;SDS011;61997;53.974;11.670;2023-06-05T09:32:00;3.05;;;1.77;;
73693;SDS011;61997;53.974;11.670;2023-06-05T09:36:55;2.08;;;1.40;;
73693;SDS011;61997;53.974;11.670;2023-06-05T09:39:24;2.40;;;1.60;;
73693;SDS011;61997;53.974;11.670;2023-06-05T09:41:54;3.17;;;1.55;;
73693;SDS011;61997;53.974;11.670;2023-06-05T09:44:23;3.22;;;1.42;;
73693;SDS011;61997;53.974;11.670;2023-06-05T09:46:55;2.25;;;1.40;;
73693;SDS011;61997;53.974;11.670;2023-06-05T09:49:31;2.35;;;1.70;;
73693;SDS011;61997;53.974;11.670;2023-06-05T09:52:11;2.83;;;1.60;;
73693;SDS011;61997;53.974;11.670;2023-06-05T09:54:38;3.78;;;1.58;;
73693;SDS011;61997;53.974;11.670;2023-06-05T09:57:08;3.30;;;1.40;;
73693;SDS011;61997;53.974;11.670;2023-06-05T10:02:15;2.50;;;1.50;;
73693;SDS011;61997;53.974;11.670;2023-06-05T10:04:46;3.20;;;1.70;;
73693;SDS011;61997;53.974;11.670;2023-06-05T10:07:18;2.03;;;1.45;;
73693;SDS011;61997;53.974;11.670;2023-06-05T10:09:48;3.25;;;1.58;;
73693;SDS011;61997;53.974;11.670;2023-06-05T10:12:20;2.17;;;1.50;;
73693;SDS011;61997;53.974;11.670;2023-06-05T10:14:58;2.70;;;1.42;;
73693;SDS011;61997;53.974;11.670;2023-06-05T10:17:35;3.22;;;1.45;;
73693;SDS011;61997;53.974;11.670;2023-06-05T10:20:08;2.33;;;1.48;;
73693;SDS011;61997;53.974;11.670;2023-06-05T10:22:45;1.95;;;1.30;;
73693;SDS011;61997;53.974;11.670;2023-06-05T10:25:22;3.00;;;1.52;;
73693;SDS011;61997;53.974;11.670;2023-06-05T10:30:59;2.20;;;1.58;;
73693;SDS011;61997;53.974;11.670;2023-06-05T10:40:00;2.25;;;1.40;;
73693;SDS011;61997;53.974;11.670;2023-06-05T10:42:35;2.55;;;1.65;;
73693;SDS011;61997;53.974;11.670;2023-06-05T10:45:10;3.20;;;1.70;;
73693;SDS011;61997;53.974;11.670;2023-06-05T10:47:57;2.60;;;1.30;;
73693;SDS011;61997;53.974;11.670;2023-06-05T10:50:26;3.08;;;1.60;;
73693;SDS011;61997;53.974;11.670;2023-06-05T10:52:57;2.35;;;1.50;;
73693;SDS011;61997;53.974;11.670;2023-06-05T10:55:26;2.55;;;1.50;;
73693;SDS011;61997;53.974;11.670;2023-06-05T11:00:35;2.88;;;1.67;;
73693;SDS011;61997;53.974;11.670;2023-06-05T11:03:02;3.60;;;1.50;;
73693;SDS011;61997;53.974;11.670;2023-06-05T11:05:28;2.17;;;1.33;;
73693;SDS011;61997;53.974;11.670;2023-06-05T11:08:16;4.38;;;1.70;;
73693;SDS011;61997;53.974;11.670;2023-06-05T11:13:53;2.78;;;1.40;;
73693;SDS011;61997;53.974;11.670;2023-06-05T11:16:28;2.65;;;1.40;;
73693;SDS011;61997;53.974;11.670;2023-06-05T11:24:40;2.20;;;1.30;;
73693;SDS011;61997;53.974;11.670;2023-06-05T11:27:07;2.95;;;1.60;;
73693;SDS011;61997;53.974;11.670;2023-06-05T11:30:22;1.75;;;1.38;;
73693;SDS011;61997;53.974;11.670;2023-06-05T11:33:06;2.83;;;1.52;;
73693;SDS011;61997;53.974;11.670;2023-06-05T11:35:48;2.25;;;1.35;;
73693;SDS011;61997;53.974;11.670;2023-06-05T11:38:19;3.05;;;1.20;;
73693;SDS011;61997;53.974;11.670;2023-06-05T11:40:52;2.33;;;1.42;;
73693;SDS011;61997;53.974;11.670;2023-06-05T11:43:32;2.20;;;1.27;;
73693;SDS011;61997;53.974;11.670;2023-06-05T11:46:01;2.13;;;1.33;;
73693;SDS011;61997;53.974;11.670;2023-06-05T11:48:29;2.40;;;1.27;;
73693;SDS011;61997;53.974;11.670;2023-06-05T11:53:30;2.22;;;1.40;;
73693;SDS011;61997;53.974;11.670;2023-06-05T11:55:57;3.15;;;1.48;;
73693;SDS011;61997;53.974;11.670;2023-06-05T11:58:30;2.47;;;1.20;;
73693;SDS011;61997;53.974;11.670;2023-06-05T12:03:49;2.08;;;1.60;;
73693;SDS011;61997;53.974;11.670;2023-06-05T12:06:27;2.33;;;1.20;;
73693;SDS011;61997;53.974;11.670;2023-06-05T12:09:05;2.20;;;1.25;;
73693;SDS011;61997;53.974;11.670;2023-06-05T12:11:34;1.95;;;1.27;;
73693;SDS011;61997;53.974;11.670;2023-06-05T12:14:03;2.47;;;1.25;;
73693;SDS011;61997;53.974;11.670;2023-06-05T12:16:36;3.33;;;1.27;;
73693;SDS011;61997;53.974;11.670;2023-06-05T12:19:10;2.13;;;1.15;;
73693;SDS011;61997;53.974;11.670;2023-06-05T12:21:39;1.75;;;1.20;;
73693;SDS011;61997;53.974;11.670;2023-06-05T12:24:06;2.28;;;1.13;;
73693;SDS011;61997;53.974;11.670;2023-06-05T12:29:21;2.10;;;1.33;;
73693;SDS011;61997;53.974;11.670;2023-06-05T12:31:51;2.13;;;1.30;;
73693;SDS011;61997;53.974;11.670;2023-06-05T12:34:18;2.28;;;1.20;;
73693;SDS011;61997;53.974;11.670;2023-06-05T12:36:45;2.40;;;1.20;;
73693;SDS011;61997;53.974;11.670;2023-06-05T12:41:39;2.55;;;1.45;;
73693;SDS011;61997;53.974;11.670;2023-06-05T12:44:07;3.55;;;1.30;;
73693;SDS011;61997;53.974;11.670;2023-06-05T12:46:33;2.83;;;1.17;;
73693;SDS011;61997;53.974;11.670;2023-06-05T12:49:01;2.17;;;1.25;;
73693;SDS011;61997;53.974;11.670;2023-06-05T12:51:27;2.00;;;1.40;;
73693;SDS011;61997;53.974;11.670;2023-06-05T12:54:00;2.65;;;1.20;;
73693;SDS011;61997;53.974;11.670;2023-06-05T12:56:30;2.30;;;1.33;;
73693;SDS011;61997;53.974;11.670;2023-06-05T12:59:00;3.13;;;1.40;;
73693;SDS011;61997;53.974;11.670;2023-06-05T13:01:34;2.13;;;1.35;;
73693;SDS011;61997;53.974;11.670;2023-06-05T13:04:10;3.35;;;1.50;;
73693;SDS011;61997;53.974;11.670;2023-06-05T13:06:40;2.67;;;1.25;;
73693;SDS011;61997;53.974;11.670;2023-06-05T13:09:09;2.65;;;1.40;;
73693;SDS011;61997;53.974;11.670;2023-06-05T13:11:37;2.22;;;1.30;;
73693;SDS011;61997;53.974;11.670;2023-06-05T13:14:03;2.30;;;1.35;;
73693;SDS011;61997;53.974;11.670;2023-06-05T13:16:34;2.00;;;1.13;;
73693;SDS011;61997;53.974;11.670;2023-06-05T13:19:05;1.92;;;1.30;;
73693;SDS011;61997;53.974;11.670;2023-06-05T13:21:39;2.08;;;1.40;;
73693;SDS011;61997;53.974;11.670;2023-06-05T13:24:18;2.47;;;1.55;;
73693;SDS011;61997;53.974;11.670;2023-06-05T13:26:45;1.90;;;1.27;;
73693;SDS011;61997;53.974;11.670;2023-06-05T13:29:18;2.55;;;1.60;;
73693;SDS011;61997;53.974;11.670;2023-06-05T13:31:49;2.55;;;1.48;;
73693;SDS011;61997;53.974;11.670;2023-06-05T13:34:20;2.22;;;1.30;;
73693;SDS011;61997;53.974;11.670;2023-06-05T13:36:53;3.30;;;1.23;;
73693;SDS011;61997;53.974;11.670;2023-06-05T13:39:23;1.88;;;1.30;;
73693;SDS011;61997;53.974;11.670;2023-06-05T13:41:51;2.55;;;1.40;;
73693;SDS011;61997;53.974;11.670;2023-06-05T13:44:16;1.90;;;1.13;;
73693;SDS011;61997;53.974;11.670;2023-06-05T13:46:43;1.80;;;1.30;;
73693;SDS011;61997;53.974;11.670;2023-06-05T13:49:09;2.80;;;1.20;;
73693;SDS011;61997;53.974;11.670;2023-06-05T13:51:36;2.42;;;1.23;;
73693;SDS011;61997;53.974;11.670;2023-06-05T13:54:04;2.17;;;1.20;;
73693;SDS011;61997;53.974;11.670;2023-06-05T13:56:32;1.98;;;1.15;;
73693;SDS011;61997;53.974;11.670;2023-06-05T13:59:00;1.98;;;1.02;;
73693;SDS011;61997;53.974;11.670;2023-06-05T14:01:27;2.70;;;1.30;;
73693;SDS011;61997;53.974;11.670;2023-06-05T14:03:53;3.72;;;1.30;;
73693;SDS011;61997;53.974;11.670;2023-06-05T14:08:50;2.08;;;1.05;;
73693;SDS011;61997;53.974;11.670;2023-06-05T14:11:18;1.95;;;1.10;;
73693;SDS011;61997;53.974;11.670;2023-06-05T14:13:44;1.73;;;1.25;;
73693;SDS011;61997;53.974;11.670;2023-06-05T14:16:14;1.92;;;1.23;;
73693;SDS011;61997;53.974;11.670;2023-06-05T14:18:41;2.97;;;1.33;;
73693;SDS011;61997;53.974;11.670;2023-06-05T14:21:08;2.53;;;1.23;;
73693;SDS011;61997;53.974;11.670;2023-06-05T14:23:39;2.20;;;1.25;;
73693;SDS011;61997;53.974;11.670;2023-06-05T14:26:06;1.73;;;1.30;;
73693;SDS011;61997;53.974;11.670;2023-06-05T14:28:32;1.88;;;1.08;;
73693;SDS011;61997;53.974;11.670;2023-06-05T14:30:59;1.60;;;1.08;;
73693;SDS011;61997;53.974;11.670;2023-06-05T14:33:26;1.90;;;1.10;;
73693;SDS011;61997;53.974;11.670;2023-06-05T14:35:53;2.33;;;1.20;;
73693;SDS011;61997;53.974;11.670;2023-06-05T14:38:23;2.85;;;1.42;;
73693;SDS011;61997;53.974;11.670;2023-06-05T14:40:49;2.22;;;1.13;;
73693;SDS011;61997;53.974;11.670;2023-06-05T14:43:17;2.65;;;1.27;;
73693;SDS011;61997;53.974;11.670;2023-06-05T14:45:45;3.30;;;1.27;;
73693;SDS011;61997;53.974;11.670;2023-06-05T14:48:14;2.30;;;1.30;;
73693;SDS011;61997;53.974;11.670;2023-06-05T14:50:41;2.15;;;1.02;;
73693;SDS011;61997;53.974;11.670;2023-06-05T14:53:12;2.78;;;1.10;;
73693;SDS011;61997;53.974;11.670;2023-06-05T14:55:38;2.38;;;1.30;;
73693;SDS011;61997;53.974;11.670;2023-06-05T14:58:04;2.25;;;1.10;;
73693;SDS011;61997;53.974;11.670;2023-06-05T15:00:33;2.22;;;1.17;;
73693;SDS011;61997;53.974;11.670;2023-06-05T15:03:00;1.98;;;1.00;;
73693;SDS011;61997;53.974;11.670;2023-06-05T15:05:28;2.17;;;1.20;;
73693;SDS011;61997;53.974;11.670;2023-06-05T15:07:55;2.67;;;1.17;;
73693;SDS011;61997;53.974;11.670;2023-06-05T15:10:22;3.42;;;1.17;;
73693;SDS011;61997;53.974;11.670;2023-06-05T15:12:54;2.85;;;1.20;;
73693;SDS011;61997;53.974;11.670;2023-06-05T15:15:25;2.05;;;1.15;;
73693;SDS011;61997;53.974;11.670;2023-06-05T15:17:53;2.55;;;1.35;;
73693;SDS011;61997;53.974;11.670;2023-06-05T15:20:31;2.05;;;1.10;;
73693;SDS011;61997;53.974;11.670;2023-06-05T15:23:01;2.40;;;1.30;;
73693;SDS011;61997;53.974;11.670;2023-06-05T15:25:29;2.15;;;1.52;;
73693;SDS011;61997;53.974;11.670;2023-06-05T15:28:01;1.85;;;1.23;;
73693;SDS011;61997;53.974;11.670;2023-06-05T15:30:34;2.45;;;1.10;;
73693;SDS011;61997;53.974;11.670;2023-06-05T15:33:02;2.13;;;1.05;;
73693;SDS011;61997;53.974;11.670;2023-06-05T15:35:33;2.13;;;1.27;;
73693;SDS011;61997;53.974;11.670;2023-06-05T15:38:08;2.58;;;1.23;;
73693;SDS011;61997;53.974;11.670;2023-06-05T15:40:40;3.03;;;1.27;;
73693;SDS011;61997;53.974;11.670;2023-06-05T15:43:12;1.95;;;1.10;;
73693;SDS011;61997;53.974;11.670;2023-06-05T15:45:41;2.38;;;1.20;;
73693;SDS011;61997;53.974;11.670;2023-06-05T15:48:08;1.90;;;1.35;;
73693;SDS011;61997;53.974;11.670;2023-06-05T15:50:36;2.33;;;1.30;;
73693;SDS011;61997;53.974;11.670;2023-06-05T15:53:04;2.00;;;1.25;;
73693;SDS011;61997;53.974;11.670;2023-06-05T15:55:33;1.67;;;1.17;;
73693;SDS011;61997;53.974;11.670;2023-06-05T15:58:07;2.75;;;1.10;;
73693;SDS011;61997;53.974;11.670;2023-06-05T16:00:35;2.15;;;1.25;;